Time;durP1;ratioP1;P1;durP2;ratioP2;P2;SDS_P1;SDS_P2;PMS_P1;PMS_P2;Temp;Humidity;BMP_temperature;BMP_pressure;BME280_temperature;BME280_humidity;BME280_pressure;Samples;Min_cycle;Max_cycle;Signal;HPM_P1;HPM_P2
2022/04/30 00:01:07;;;;;;;;;;;;;;;8.00;100.00;98314.20;1752229;82;20110;-74
2022/04/30 00:03:35;;;;;;;;;;;;;;;7.99;100.00;98321.98;1752553;82;20138;-74
2022/04/30 00:06:04;;;;;;;;;;;;;;;7.97;100.00;98320.83;1752597;82;20087;-76
2022/04/30 00:08:31;;;;;;;;;;;;;;;7.97;100.00;98322.70;1752406;82;20099;-74
2022/04/30 00:11:00;;;;;;;;;;;;;;;7.96;100.00;98327.75;1752249;82;20107;-75
2022/04/30 00:13:28;;;;;;;;;;;;;;;7.96;100.00;98332.61;1752542;82;20114;-73
2022/04/30 00:15:59;;;;;;;;;;;;;;;7.97;100.00;98339.67;1752420;81;20439;-75
2022/04/30 00:18:26;;;;;;;;;;;;;;;7.99;100.00;98334.09;1752437;82;20106;-75
2022/04/30 00:20:53;;;;;;;;;;;;;;;7.98;100.00;98335.97;1752517;81;20383;-74
2022/04/30 00:23:20;;;;;;;;;;;;;;;7.98;100.00;98340.00;1752196;82;20094;-74
2022/04/30 00:25:49;;;;;;;;;;;;;;;7.98;100.00;98337.31;1752701;82;20094;-75
2022/04/30 00:28:21;;;;;;;;;;;;;;;7.99;100.00;98340.83;1752328;82;20091;-73
2022/04/30 00:30:49;;;;;;;;;;;;;;;8.01;100.00;98335.25;1752616;81;20123;-72
2022/04/30 00:33:16;;;;;;;;;;;;;;;7.98;100.00;98335.97;1761933;81;20098;-73
2022/04/30 00:35:43;;;;;;;;;;;;;;;7.97;100.00;98342.89;1794721;79;20120;-74
2022/04/30 00:38:11;;;;;;;;;;;;;;;7.94;100.00;98341.92;1796055;80;20120;-75
2022/04/30 00:40:39;;;;;;;;;;;;;;;7.87;100.00;98346.42;1796061;79;20128;-75
2022/04/30 00:43:08;;;;;;;;;;;;;;;7.84;100.00;98348.98;1762190;80;20097;-75
2022/04/30 00:45:35;;;;;;;;;;;;;;;7.84;100.00;98352.19;1795004;80;20400;-74
2022/04/30 00:48:05;;;;;;;;;;;;;;;7.80;100.00;98347.19;1795005;80;20444;-74
2022/04/30 00:50:33;;;;;;;;;;;;;;;7.80;100.00;98340.98;1795165;80;20096;-75
2022/04/30 00:53:00;;;;;;;;;;;;;;;7.79;100.00;98340.65;1795235;80;20116;-74
2022/04/30 00:55:28;;;;;;;;;;;;;;;7.76;100.00;98339.72;1795517;80;20096;-75
2022/04/30 00:57:55;;;;;;;;;;;;;;;7.73;100.00;98343.61;1795372;80;20108;-75
2022/04/30 01:00:22;;;;;;;;;;;;;;;7.71;100.00;98334.91;1796015;80;20108;-74
2022/04/30 01:02:54;;;;;;;;;;;;;;;7.69;100.00;98332.11;1704756;84;20115;-75
2022/04/30 01:05:26;;;;;;;;;;;;;;;7.68;100.00;98322.36;1681594;85;20121;-74
2022/04/30 01:07:54;;;;;;;;;;;;;;;7.69;100.00;98315.97;1680851;85;20438;-75
2022/04/30 01:10:21;;;;;;;;;;;;;;;7.67;100.00;98304.05;1681072;85;20134;-74
2022/04/30 01:12:48;;;;;;;;;;;;;;;7.67;100.00;98298.67;1681164;85;20137;-76
2022/04/30 01:15:15;;;;;;;;;;;;;;;7.67;100.00;98296.50;1680934;85;20113;-75
2022/04/30 01:17:42;;;;;;;;;;;;;;;7.66;100.00;98287.58;1681132;85;20093;-74
2022/04/30 01:20:10;;;;;;;;;;;;;;;7.65;100.00;98279.20;1680588;85;20113;-74
2022/04/30 01:22:41;;;;;;;;;;;;;;;7.65;100.00;98276.52;1680624;85;20103;-74
2022/04/30 01:25:09;;;;;;;;;;;;;;;7.63;100.00;98273.69;1674796;85;20441;-74
2022/04/30 01:27:35;;;;;;;;;;;;;;;7.61;100.00;98264.47;1680629;85;20113;-74
2022/04/30 01:30:04;;;;;;;;;;;;;;;7.61;100.00;98259.08;1686116;85;20145;-73
2022/04/30 01:38:02;;;;;;;;;;;;;;;7.57;100.00;98230.41;1626699;87;20097;-73
2022/04/30 01:40:30;;;;;;;;;;;;;;;7.57;100.00;98216.13;1626495;88;20446;-72
2022/04/30 01:43:00;;;;;;;;;;;;;;;7.55;100.00;98209.59;1648194;85;20105;-72
2022/04/30 01:45:28;;;;;;;;;;;;;;;7.54;100.00;98203.06;1661432;86;20170;-74
2022/04/30 01:47:56;;;;;;;;;;;;;;;7.52;100.00;98201.09;1661722;86;20114;-72
2022/04/30 01:50:23;;;;;;;;;;;;;;;7.50;100.00;98196.43;1661039;86;20114;-74
2022/04/30 01:52:51;;;;;;;;;;;;;;;7.47;100.00;98192.29;1661149;86;20125;-73
2022/04/30 01:55:17;;;;;;;;;;;;;;;7.44;100.00;98183.27;1659986;86;20415;-72
2022/04/30 01:57:46;;;;;;;;;;;;;;;7.41;100.00;98186.34;1661077;86;20186;-73
2022/04/30 02:00:14;;;;;;;;;;;;;;;7.38;100.00;98180.00;1689765;84;20161;-73
2022/04/30 02:02:44;;;;;;;;;;;;;;;7.38;100.00;98166.06;1698362;85;20099;-74
2022/04/30 02:05:12;;;;;;;;;;;;;;;7.38;100.00;98147.23;1698699;85;20115;-73
2022/04/30 02:07:41;;;;;;;;;;;;;;;7.39;100.00;98138.65;1698660;85;20139;-72
2022/04/30 02:10:10;;;;;;;;;;;;;;;7.41;100.00;98132.03;1698222;85;20186;-75
2022/04/30 02:12:37;;;;;;;;;;;;;;;7.41;100.00;98111.05;1698877;85;20449;-73
2022/04/30 02:15:08;;;;;;;;;;;;;;;7.40;100.00;98098.62;1698016;85;20131;-75
2022/04/30 02:17:38;;;;;;;;;;;;;;;7.37;100.00;98105.75;1698475;85;20112;-74
2022/04/30 02:22:54;;;;;;;;;;;;;;;7.31;100.00;98102.01;1698483;85;20111;-74
2022/04/30 02:25:21;;;;;;;;;;;;;;;7.29;100.00;98085.22;1698491;85;20099;-75
2022/04/30 02:27:50;;;;;;;;;;;;;;;7.30;100.00;98087.41;1700472;85;20104;-74
2022/04/30 02:30:19;;;;;;;;;;;;;;;7.31;100.00;98081.84;1700111;85;20103;-74
2022/04/30 02:32:53;;;;;;;;;;;;;;;7.33;100.00;98078.44;1610047;87;20145;-75
2022/04/30 02:35:23;;;;;;;;;;;;;;;7.32;100.00;98077.28;1609945;89;20194;-75
2022/04/30 02:37:52;;;;;;;;;;;;;;;7.30;100.00;98074.80;1525399;94;20484;-74
2022/04/30 02:40:20;;;;;;;;;;;;;;;7.29;100.00;98084.39;1525331;94;20438;-75
2022/04/30 02:42:48;;;;;;;;;;;;;;;7.26;100.00;98084.29;1569143;90;20319;-75
2022/04/30 02:45:15;;;;;;;;;;;;;;;7.24;100.00;98083.62;1584591;90;20115;-75
2022/04/30 02:47:43;;;;;;;;;;;;;;;7.22;100.00;98083.86;1584700;90;20099;-75
2022/04/30 02:50:12;;;;;;;;;;;;;;;7.22;100.00;98084.34;1584686;90;20115;-75
2022/04/30 02:55:09;;;;;;;;;;;;;;;7.15;100.00;98077.61;1515863;95;20396;-75
2022/04/30 02:59:53;;;;;;;;;;;;;;;7.14;100.00;98087.21;1535640;94;20118;-76
2022/04/30 03:00:10;;;;;;;;;;;;;;;7.13;100.00;98080.98;1532931;94;20152;-74
2022/04/30 03:02:41;;;;;;;;;;;;;;;7.15;100.00;98065.52;1452829;99;20491;-74
2022/04/30 03:05:09;;;;;;;;;;;;;;;7.17;100.00;98065.29;1452844;99;20125;-73
2022/04/30 03:07:37;;;;;;;;;;;;;;;7.18;100.00;98069.12;1452668;99;20140;-75
2022/04/30 03:10:07;;;;;;;;;;;;;;;7.22;100.00;98070.91;1451660;98;20199;-75
2022/04/30 03:12:35;;;;;;;;;;;;;;;7.21;100.00;98069.27;1452881;99;20185;-75
2022/04/30 03:15:02;;;;;;;;;;;;;;;7.23;100.00;98064.52;1452876;98;20154;-75
2022/04/30 03:23:00;;;;;;;;;;;;;;;7.22;100.00;98062.35;1456305;98;20162;-75
2022/04/30 03:25:28;;;;;;;;;;;;;;;7.22;100.00;98063.70;1462172;98;20426;-74
2022/04/30 03:27:55;;;;;;;;;;;;;;;7.21;100.00;98076.80;1461675;98;20136;-74
2022/04/30 03:30:22;;;;;;;;;;;;;;;7.19;100.00;98074.02;1479160;96;20122;-75
2022/04/30 03:32:50;;;;;;;;;;;;;;;7.17;100.00;98076.89;1487980;94;20165;-74
2022/04/30 03:35:17;;;;;;;;;;;;;;;7.17;100.00;98080.92;1523721;93;20117;-75
2022/04/30 03:37:45;;;;;;;;;;;;;;;7.17;100.00;98088.98;1552029;92;20140;-76
2022/04/30 03:40:13;;;;;;;;;;;;;;;7.18;100.00;98091.98;1553871;92;20158;-74
2022/04/30 03:42:40;;;;;;;;;;;;;;;7.17;100.00;98090.34;1553685;92;20121;-75
2022/04/30 03:45:09;;;;;;;;;;;;;;;7.19;100.00;98092.83;1553884;92;20123;-75
2022/04/30 03:47:37;;;;;;;;;;;;;;;7.19;100.00;98090.96;1553944;92;20423;-75
2022/04/30 03:50:07;;;;;;;;;;;;;;;7.21;100.00;98087.56;1553772;92;20205;-75
2022/04/30 03:52:34;;;;;;;;;;;;;;;7.26;100.00;98091.50;1638351;86;20442;-77
2022/04/30 03:55:02;;;;;;;;;;;;;;;7.29;100.00;98083.05;1649470;87;20106;-75
2022/04/30 03:57:31;;;;;;;;;;;;;;;7.30;100.00;98080.17;1649513;87;20139;-74
2022/04/30 03:59:57;;;;;;;;;;;;;;;7.32;100.00;98081.32;1703463;83;20410;-74
2022/04/30 04:02:24;;;;;;;;;;;;;;;7.32;100.00;98078.63;1766877;81;20102;-74
2022/04/30 04:04:52;;;;;;;;;;;;;;;7.33;100.00;98078.44;1767278;81;20110;-75
2022/04/30 04:07:20;;;;;;;;;;;;;;;7.35;100.00;98072.87;1766858;81;20102;-75
2022/04/30 04:09:46;;;;;;;;;;;;;;;7.36;100.00;98075.33;1766638;81;20098;-76
2022/04/30 04:12:13;;;;;;;;;;;;;;;7.37;100.00;98089.10;1767041;81;20374;-76
2022/04/30 04:17:39;;;;;;;;;;;;;;;7.51;100.00;98081.94;1769087;81;20125;-74
2022/04/30 04:20:11;;;;;;;;;;;;;;;7.60;100.00;98081.26;1767490;81;20120;-75
2022/04/30 04:22:38;;;;;;;;;;;;;;;7.66;100.00;98072.37;1767257;81;20087;-75
2022/04/30 04:27:55;;;;;;;;;;;;;;;7.78;100.00;98064.05;1766118;81;20109;-76
2022/04/30 04:30:22;;;;;;;;;;;;;;;7.80;100.00;98054.43;1755642;82;20426;-75
2022/04/30 04:32:49;;;;;;;;;;;;;;;7.77;100.00;98066.44;1763707;79;20090;-75
2022/04/30 04:35:16;;;;;;;;;;;;;;;7.74;100.00;98078.12;1808609;79;20095;-76
2022/04/30 04:37:44;;;;;;;;;;;;;;;7.68;100.00;98090.48;1808251;79;20114;-75
2022/04/30 04:40:12;;;;;;;;;;;;;;;7.63;100.00;98110.95;1810758;79;20126;-76
2022/04/30 04:42:39;;;;;;;;;;;;;;;7.58;100.00;98121.80;1806337;78;20146;-74
2022/04/30 04:45:07;;;;;;;;;;;;;;;7.57;100.00;98136.78;1784096;80;20124;-75
2022/04/30 04:47:35;;;;;;;;;;;;;;;7.56;100.00;98142.69;1800674;79;20159;-73
2022/04/30 04:50:07;;;;;;;;;;;;;;;7.55;100.00;98156.33;1825783;79;20096;-75
2022/04/30 04:52:34;;;;;;;;;;;;;;;7.54;100.00;98161.38;1826350;79;20116;-76
2022/04/30 04:55:01;;;;;;;;;;;;;;;7.56;100.00;98172.77;1826315;79;20092;-76
2022/04/30 04:57:28;;;;;;;;;;;;;;;7.66;100.00;98173.25;1826449;79;20400;-76
2022/04/30 04:59:57;;;;;;;;;;;;;;;7.77;100.00;98168.67;1822196;78;20106;-75
2022/04/30 05:02:24;;;;;;;;;;;;;;;7.86;100.00;98171.18;1818022;79;20165;-76
2022/04/30 05:04:50;;;;;;;;;;;;;;;7.89;100.00;98171.61;1818002;79;20391;-77
2022/04/30 05:07:17;;;;;;;;;;;;;;;7.90;100.00;98177.33;1818363;79;20410;-75
2022/04/30 05:09:44;;;;;;;;;;;;;;;7.97;100.00;98182.75;1818334;79;20126;-75
2022/04/30 05:12:12;;;;;;;;;;;;;;;8.01;100.00;98185.87;1812882;79;20104;-75
2022/04/30 05:14:40;;;;;;;;;;;;;;;8.06;100.00;98184.75;1797362;80;20527;-77
2022/04/30 05:17:08;;;;;;;;;;;;;;;8.14;100.00;98184.56;1797059;80;20162;-77
2022/04/30 05:19:36;;;;;;;;;;;;;;;8.22;100.00;98180.36;1797391;80;20163;-75
2022/04/30 05:22:03;;;;;;;;;;;;;;;8.29;100.00;98181.73;1797646;80;20092;-75
2022/04/30 05:24:30;;;;;;;;;;;;;;;8.35;100.00;98180.39;1824543;78;20126;-76
2022/04/30 05:26:57;;;;;;;;;;;;;;;8.41;100.00;98188.70;1822127;78;20115;-75
2022/04/30 05:29:24;;;;;;;;;;;;;;;8.47;100.00;98200.05;1811305;78;20385;-74
2022/04/30 05:31:52;;;;;;;;;;;;;;;8.50;100.00;98208.56;1778866;80;20108;-75
2022/04/30 05:34:19;;;;;;;;;;;;;;;8.52;100.00;98222.66;1775633;80;20454;-76
2022/04/30 05:36:47;;;;;;;;;;;;;;;8.59;100.00;98235.30;1769238;81;20101;-75
2022/04/30 05:39:14;;;;;;;;;;;;;;;8.59;100.00;98248.27;1763892;81;20092;-76
2022/04/30 05:41:40;;;;;;;;;;;;;;;8.62;100.00;98277.48;1764231;81;20104;-76
2022/04/30 05:44:07;;;;;;;;;;;;;;;8.75;100.00;98279.42;1795517;79;20176;-76
2022/04/30 05:46:34;;;;;;;;;;;;;;;8.92;100.00;98286.60;1770617;81;20109;-75
2022/04/30 05:49:01;;;;;;;;;;;;;;;9.07;100.00;98286.45;1771584;81;20142;-76
2022/04/30 05:51:28;;;;;;;;;;;;;;;9.17;100.00;98296.33;1771407;80;20112;-76
2022/04/30 05:53:57;;;;;;;;;;;;;;;9.31;100.00;98309.29;1772479;81;20128;-75
2022/04/30 05:56:24;;;;;;;;;;;;;;;9.44;100.00;98313.37;1771178;80;20109;-77
2022/04/30 05:58:54;;;;;;;;;;;;;;;9.61;100.00;98324.57;1772119;81;20088;-77
2022/04/30 06:01:20;;;;;;;;;;;;;;;9.80;100.00;98325.63;1707332;83;20190;-77
2022/04/30 06:03:48;;;;;;;;;;;;;;;9.99;100.00;98342.03;1696255;83;20111;-73
2022/04/30 06:06:15;;;;;;;;;;;;;;;10.15;100.00;98363.73;1700362;83;20115;-76
2022/04/30 06:08:43;;;;;;;;;;;;;;;10.23;100.00;98405.36;1702084;83;20111;-78
2022/04/30 06:11:10;;;;;;;;;;;;;;;10.31;100.00;98447.06;1698033;85;20100;-77
2022/04/30 06:13:37;;;;;;;;;;;;;;;10.47;100.00;98476.89;1697582;85;20123;-77
2022/04/30 06:16:05;;;;;;;;;;;;;;;10.59;100.00;98517.11;1696178;83;20108;-75
2022/04/30 06:18:32;;;;;;;;;;;;;;;10.66;100.00;98569.83;1696426;85;20104;-77
2022/04/30 06:20:59;;;;;;;;;;;;;;;10.74;100.00;98620.14;1696619;85;20138;-77
2022/04/30 06:23:27;;;;;;;;;;;;;;;10.86;100.00;98657.70;1696664;85;20155;-77
2022/04/30 06:25:55;;;;;;;;;;;;;;;10.91;100.00;98722.81;1697123;83;20153;-77
2022/04/30 06:28:22;;;;;;;;;;;;;;;10.89;100.00;98797.91;1697223;85;20103;-77
2022/04/30 06:30:51;;;;;;;;;;;;;;;10.79;100.00;98894.80;1697165;85;20115;-78
2022/04/30 06:33:18;;;;;;;;;;;;;;;10.68;100.00;98991.31;1697165;84;20254;-78
2022/04/30 06:35:44;;;;;;;;;;;;;;;10.63;100.00;99044.64;1697271;85;20136;-78
2022/04/30 06:38:12;;;;;;;;;;;;;;;10.66;100.00;99071.78;1696842;85;20186;-77
2022/04/30 06:40:39;;;;;;;;;;;;;;;10.64;100.00;99114.73;1696873;85;20440;-76
2022/04/30 06:43:06;;;;;;;;;;;;;;;10.56;100.00;99155.41;1696811;85;20131;-77
2022/04/30 06:45:33;;;;;;;;;;;;;;;10.51;100.00;99184.05;1673212;85;20147;-77
2022/04/30 06:48:00;;;;;;;;;;;;;;;10.47;100.00;99224.66;1695922;85;20171;-78
2022/04/30 06:50:27;;;;;;;;;;;;;;;10.41;100.00;99246.50;1696868;85;20127;-74
2022/04/30 06:58:26;;;;;;;;;;;;;;;10.05;100.00;99333.18;1715936;83;20121;-77
2022/04/30 07:03:27;;;;;;;;;;;;;;;9.97;100.00;99332.42;1751178;81;20113;-75
2022/04/30 07:06:04;;;;;;;;;;;;;;;9.93;100.00;99353.56;1749680;81;20110;-76
2022/04/30 07:08:32;;;;;;;;;;;;;;;9.90;100.00;99370.16;1754555;81;20099;-77
2022/04/30 07:11:00;;;;;;;;;;;;;;;9.93;100.00;99375.69;1754039;81;20125;-76
2022/04/30 07:13:29;;;;;;;;;;;;;;;10.03;100.00;99365.47;1766819;81;20430;-75
2022/04/30 07:15:58;;;;;;;;;;;;;;;10.17;100.00;99360.59;1766188;81;20134;-76
2022/04/30 07:18:26;;;;;;;;;;;;;;;10.31;100.00;99379.22;1765997;81;20110;-75
2022/04/30 07:20:53;;;;;;;;;;;;;;;10.36;100.00;99432.20;1766334;81;20137;-77
2022/04/30 07:23:22;;;;;;;;;;;;;;;10.48;100.00;99453.36;1766377;81;20114;-76
2022/04/30 07:25:50;;;;;;;;;;;;;;;10.62;100.00;99460.15;1741635;81;20443;-76
2022/04/30 07:28:17;;;;;;;;;;;;;;;10.79;100.00;99496.47;1757713;81;20163;-77
2022/04/30 07:30:43;;;;;;;;;;;;;;;10.92;100.00;99543.98;1766895;81;20122;-76
2022/04/30 07:33:11;;;;;;;;;;;;;;;11.10;100.00;99568.48;1764155;81;20111;-75
2022/04/30 07:35:38;;;;;;;;;;;;;;;11.19;100.00;99650.75;1739588;81;20174;-77
2022/04/30 07:38:06;;;;;;;;;;;;;;;11.09;100.00;99722.39;1762639;81;20087;-75
2022/04/30 07:40:35;;;;;;;;;;;;;;;11.02;100.00;99758.80;1762446;81;20094;-75
2022/04/30 07:43:02;;;;;;;;;;;;;;;11.07;100.00;99744.22;1738063;81;20149;-74
2022/04/30 07:45:30;;;;;;;;;;;;;;;11.16;100.00;99770.70;1731871;81;20133;-76
2022/04/30 07:47:58;;;;;;;;;;;;;;;11.16;100.00;99816.19;1734520;81;20132;-75
2022/04/30 07:50:26;;;;;;;;;;;;;;;11.23;100.00;99826.31;1750655;81;20587;-75
2022/04/30 07:52:53;;;;;;;;;;;;;;;11.37;100.00;99834.99;1763743;80;20129;-75
2022/04/30 07:55:21;;;;;;;;;;;;;;;11.73;100.00;99828.39;1745901;81;20135;-74
2022/04/30 07:57:48;;;;;;;;;;;;;;;12.24;100.00;99832.33;1733891;83;20373;-74
2022/04/30 08:00:15;;;;;;;;;;;;;;;12.92;100.00;99856.03;1734927;81;20164;-73
2022/04/30 08:02:42;;;;;;;;;;;;;;;13.53;100.00;99917.28;1742852;81;20113;-74
2022/04/30 08:05:09;;;;;;;;;;;;;;;14.07;100.00;99953.97;1733884;81;20112;-75
2022/04/30 08:07:36;;;;;;;;;;;;;;;14.43;100.00;100000.92;1733268;83;20156;-74
2022/04/30 08:10:04;;;;;;;;;;;;;;;14.65;100.00;100024.03;1733403;83;20135;-74
2022/04/30 08:12:31;;;;;;;;;;;;;;;14.74;100.00;100059.58;1733555;83;20401;-76
2022/04/30 08:14:58;;;;;;;;;;;;;;;14.68;100.00;100089.45;1733213;81;20109;-75
2022/04/30 08:17:27;;;;;;;;;;;;;;;14.56;100.00;100149.00;1733566;83;20152;-76
2022/04/30 08:19:53;;;;;;;;;;;;;;;14.53;100.00;100162.45;1743785;81;20188;-74
2022/04/30 08:22:20;;;;;;;;;;;;;;;14.68;100.00;100171.97;1746153;81;20171;-74
2022/04/30 08:24:48;;;;;;;;;;;;;;;14.85;100.00;100171.69;1743349;81;20137;-75
2022/04/30 08:27:15;;;;;;;;;;;;;;;15.21;100.00;100162.05;1743427;81;20098;-74
2022/04/30 08:29:42;;;;;;;;;;;;;;;15.72;100.00;100203.98;1733246;83;20141;-74
2022/04/30 08:32:09;;;;;;;;;;;;;;;16.09;100.00;100264.61;1741270;81;20442;-75
2022/04/30 08:34:36;;;;;;;;;;;;;;;16.41;100.00;100636.66;1753225;80;20142;-73
2022/04/30 08:37:03;;;;;;;;;;;;;;;16.68;100.00;100674.09;1754656;80;20114;-73
2022/04/30 08:39:31;;;;;;;;;;;;;;;16.81;100.00;100677.99;1815451;79;20468;-74
2022/04/30 08:41:58;;;;;;;;;;;;;;;16.95;100.00;100681.72;1798815;79;20100;-74
2022/04/30 08:44:25;;;;;;;;;;;;;;;16.98;100.00;100683.53;1796068;80;20137;-74
2022/04/30 08:46:53;;;;;;;;;;;;;;;16.86;100.00;100685.11;1758025;82;20144;-74
2022/04/30 08:49:20;;;;;;;;;;;;;;;16.82;100.00;100687.86;1775999;80;20114;-72
2022/04/30 08:51:47;;;;;;;;;;;;;;;17.01;100.00;100694.58;1794029;79;20171;-74
2022/04/30 08:54:14;;;;;;;;;;;;;;;17.05;100.00;100691.27;1778851;81;20174;-72
2022/04/30 08:56:56;;;;;;;;;;;;;;;17.16;100.00;100696.70;1789526;79;20384;-76
2022/04/30 08:59:23;;;;;;;;;;;;;;;17.21;100.00;100691.98;1802723;79;20107;-72
2022/04/30 09:01:54;;;;;;;;;;;;;;;17.34;100.00;100680.33;1790717;79;20373;-74
2022/04/30 09:04:21;;;;;;;;;;;;;;;17.43;100.00;100675.02;1827935;78;20104;-73
2022/04/30 09:06:50;;;;;;;;;;;;;;;17.53;100.00;100676.02;1821180;78;20392;-68
2022/04/30 09:09:26;;;;;;;;;;;;;;;17.62;100.00;100666.63;1812261;79;20124;-73
2022/04/30 09:11:57;;;;;;;;;;;;;;;17.70;100.00;100671.07;1818312;79;20103;-76
2022/04/30 09:14:28;;;;;;;;;;;;;;;17.82;100.00;100671.65;1817264;79;20373;-72
2022/04/30 09:17:05;;;;;;;;;;;;;;;17.82;93.27;100674.91;1809632;79;20151;-74
2022/04/30 09:19:33;;;;;;;;;;;;;;;17.67;89.03;100670.09;1792511;79;20158;-74
2022/04/30 09:22:03;;;;;;;;;;;;;;;17.76;95.37;100667.51;1768585;80;22011;-75
2022/04/30 09:24:30;;;;;;;;;;;;;;;17.88;94.82;100659.61;1803908;79;20143;-74
2022/04/30 09:27:02;;;;;;;;;;;;;;;18.08;91.81;100662.41;1803168;79;20119;-73
2022/04/30 09:29:30;;;;;;;;;;;;;;;18.05;92.40;100662.31;1815225;79;20115;-73
2022/04/30 09:31:57;;;;;;;;;;;;;;;17.98;90.79;100658.70;1817203;79;20444;-75
2022/04/30 09:39:56;;;;;;;;;;;;;;;18.45;86.06;100659.69;1834527;78;20089;-73
2022/04/30 09:42:23;;;;;;;;;;;;;;;18.62;92.54;100657.91;1834681;78;20202;-74
2022/04/30 09:44:52;;;;;;;;;;;;;;;18.98;83.22;100661.63;1833225;78;20100;-73
2022/04/30 09:47:19;;;;;;;;;;;;;;;18.94;77.80;100654.36;1834047;78;20136;-74
2022/04/30 09:55:17;;;;;;;;;;;;;;;18.18;76.63;100652.78;1833959;78;20132;-73
2022/04/30 09:57:44;;;;;;;;;;;;;;;18.00;86.82;100641.55;1833320;78;20540;-73
2022/04/30 10:00:14;;;;;;;;;;;;;;;18.16;88.15;100644.45;1833941;78;20436;-74
2022/04/30 10:02:41;;;;;;;;;;;;;;;18.36;91.08;100647.22;1834007;78;20104;-74
2022/04/30 10:05:08;;;;;;;;;;;;;;;18.54;91.64;100638.43;1833861;78;20097;-74
2022/04/30 10:07:35;;;;;;;;;;;;;;;18.67;87.13;100641.70;1834451;78;20455;-73
2022/04/30 10:10:05;;;;;;;;;;;;;;;18.69;85.83;100634.11;1833863;78;20470;-73
2022/04/30 10:12:41;;;;;;;;;;;;;;;18.72;87.25;100631.80;1833704;78;20128;-75
2022/04/30 10:15:24;;;;;;;;;;;;;;;18.93;90.60;100634.88;1833878;78;20147;-75
2022/04/30 10:17:57;;;;;;;;;;;;;;;19.22;92.06;100636.84;1834105;78;20105;-73
2022/04/30 10:20:34;;;;;;;;;;;;;;;19.33;77.20;100630.69;1833647;78;20100;-73
2022/04/30 10:23:00;;;;;;;;;;;;;;;19.28;72.79;100631.03;1833925;78;20163;-74
2022/04/30 10:25:43;;;;;;;;;;;;;;;19.15;72.51;100624.51;1833913;78;20119;-73
2022/04/30 10:28:19;;;;;;;;;;;;;;;19.22;74.05;100627.78;1833768;78;20092;-75
2022/04/30 10:30:49;;;;;;;;;;;;;;;19.49;75.49;100618.95;1834006;78;20147;-72
2022/04/30 10:33:16;;;;;;;;;;;;;;;19.50;71.25;100620.11;1831625;78;20084;-74
2022/04/30 10:35:43;;;;;;;;;;;;;;;19.27;70.79;100623.87;1826742;77;20171;-74
2022/04/30 10:38:18;;;;;;;;;;;;;;;19.01;71.91;100622.02;1786699;80;20436;-74
2022/04/30 10:40:52;;;;;;;;;;;;;;;18.91;77.38;100621.06;1787403;80;20100;-75
2022/04/30 10:43:23;;;;;;;;;;;;;;;18.84;74.31;100618.85;1787374;80;20179;-71
2022/04/30 10:45:50;;;;;;;;;;;;;;;18.80;79.08;100608.81;1785712;80;20104;-74
2022/04/30 10:48:16;;;;;;;;;;;;;;;19.03;78.62;100611.67;1785828;80;20159;-75
2022/04/30 10:50:45;;;;;;;;;;;;;;;19.04;73.61;100608.73;1785565;80;20178;-74
2022/04/30 10:53:13;;;;;;;;;;;;;;;18.79;71.37;100609.88;1786853;80;20187;-74
2022/04/30 10:55:40;;;;;;;;;;;;;;;18.56;69.90;100609.77;1786488;80;20116;-74
2022/04/30 10:58:08;;;;;;;;;;;;;;;18.30;71.32;100601.53;1786654;80;20132;-76
2022/04/30 11:00:34;;;;;;;;;;;;;;;17.98;71.69;100606.19;1786685;80;20100;-74
2022/04/30 11:03:09;;;;;;;;;;;;;;;17.60;73.82;100600.33;1786527;80;20092;-75
2022/04/30 11:05:37;;;;;;;;;;;;;;;17.32;76.65;100589.50;1786931;80;20167;-74
2022/04/30 11:08:04;;;;;;;;;;;;;;;17.08;83.74;100582.09;1787046;80;20096;-76
2022/04/30 11:10:32;;;;;;;;;;;;;;;16.88;82.77;100590.16;1787090;80;20111;-74
2022/04/30 11:13:06;;;;;;;;;;;;;;;16.73;87.02;100591.57;1786719;80;20119;-75
2022/04/30 11:15:33;;;;;;;;;;;;;;;16.64;88.97;100589.53;1786940;80;20096;-75
2022/04/30 11:18:00;;;;;;;;;;;;;;;16.60;91.28;100596.94;1800089;79;20169;-75
2022/04/30 11:20:26;;;;;;;;;;;;;;;16.55;90.75;100601.61;1794093;80;20399;-75
2022/04/30 11:22:55;;;;;;;;;;;;;;;16.41;86.83;100587.00;1793925;80;20094;-75
2022/04/30 11:25:22;;;;;;;;;;;;;;;16.26;90.51;100590.34;1793847;80;20407;-73
2022/04/30 11:27:51;;;;;;;;;;;;;;;16.26;94.72;100591.17;1793860;80;20130;-75
2022/04/30 11:30:19;;;;;;;;;;;;;;;16.35;97.22;100586.97;1791364;80;20134;-75
2022/04/30 11:32:48;;;;;;;;;;;;;;;16.52;97.29;100576.09;1792938;80;20165;-75
2022/04/30 11:35:19;;;;;;;;;;;;;;;16.74;97.71;100580.98;1802190;79;20122;-75
2022/04/30 11:37:46;;;;;;;;;;;;;;;16.99;100.00;100566.37;1822616;78;20100;-74
2022/04/30 11:40:13;;;;;;;;;;;;;;;17.31;94.17;100572.23;1835113;78;20117;-75
2022/04/30 11:42:40;;;;;;;;;;;;;;;17.50;87.31;100563.81;1800116;80;20573;-75
2022/04/30 11:45:08;;;;;;;;;;;;;;;17.62;87.12;100556.71;1836307;78;20143;-75
2022/04/30 11:47:36;;;;;;;;;;;;;;;17.90;88.81;100553.55;1836188;78;20475;-74
2022/04/30 11:50:05;;;;;;;;;;;;;;;18.17;88.67;100557.20;1837828;78;20084;-74
2022/04/30 11:52:33;;;;;;;;;;;;;;;18.32;78.23;100554.25;1782977;80;20104;-72
2022/04/30 11:55:04;;;;;;;;;;;;;;;18.31;78.75;100547.95;1783400;80;20444;-73
2022/04/30 11:57:32;;;;;;;;;;;;;;;18.47;80.05;100541.22;1764576;80;20126;-76
2022/04/30 11:59:59;;;;;;;;;;;;;;;18.60;76.92;100546.67;1765029;81;20169;-73
2022/04/30 12:02:28;;;;;;;;;;;;;;;18.55;74.62;100544.25;1764800;81;20467;-76
2022/04/30 12:05:03;;;;;;;;;;;;;;;18.42;74.16;100534.16;1764400;81;20150;-76
2022/04/30 12:07:43;;;;;;;;;;;;;;;18.31;75.10;100534.77;1766558;80;20141;-75
2022/04/30 12:10:16;;;;;;;;;;;;;;;18.13;77.24;100540.36;1763904;80;20518;-75
2022/04/30 12:12:43;;;;;;;;;;;;;;;18.12;76.85;100536.45;1764553;81;20094;-75
2022/04/30 12:15:25;;;;;;;;;;;;;;;18.19;78.38;100536.77;1764156;80;20137;-75
2022/04/30 12:26:52;;;;;;;;;;;;;;;19.08;73.74;100509.11;1638455;87;20411;-75
2022/04/30 12:29:19;;;;;;;;;;;;;;;19.33;73.46;100514.16;1612435;88;20535;-74
2022/04/30 12:31:51;;;;;;;;;;;;;;;19.53;71.50;100503.66;1627515;88;20101;-76
2022/04/30 12:34:21;;;;;;;;;;;;;;;19.60;67.43;100508.58;1563816;90;20127;-76
2022/04/30 12:36:54;;;;;;;;;;;;;;;19.52;63.92;100505.55;1549796;91;20113;-74
2022/04/30 12:39:25;;;;;;;;;;;;;;;19.38;64.86;100498.44;1558053;92;20107;-75
2022/04/30 12:41:52;;;;;;;;;;;;;;;19.35;64.43;100499.73;1557816;92;20103;-76
2022/04/30 12:44:21;;;;;;;;;;;;;;;19.16;66.28;100503.40;1557728;92;20124;-74
2022/04/30 12:46:50;;;;;;;;;;;;;;;19.25;69.81;100490.30;1557574;92;20147;-74
2022/04/30 12:49:19;;;;;;;;;;;;;;;19.44;67.04;100484.38;1558858;90;20115;-71
2022/04/30 12:54:16;;;;;;;;;;;;;;;19.69;64.96;100489.97;1517521;93;20130;-77
2022/04/30 12:56:45;;;;;;;;;;;;;;;19.54;54.47;100480.64;1539412;92;20194;-78
2022/04/30 12:59:13;;;;;;;;;;;;;;;19.44;60.90;100487.13;1539844;93;20135;-77
2022/04/30 13:01:40;;;;;;;;;;;;;;;19.51;64.57;100481.94;1520340;93;20281;-74
2022/04/30 13:04:08;;;;;;;;;;;;;;;19.60;65.53;100481.66;1539190;93;20115;-75
2022/04/30 13:06:35;;;;;;;;;;;;;;;19.60;67.09;100477.04;1539400;93;20439;-75
2022/04/30 13:14:36;;;;;;;;;;;;;;;19.63;65.48;100471.09;1539193;93;20159;-74
2022/04/30 13:17:03;;;;;;;;;;;;;;;19.66;63.63;100471.20;1539409;93;20146;-74
2022/04/30 13:19:34;;;;;;;;;;;;;;;19.66;62.63;100473.40;1539169;93;20450;-75
2022/04/30 13:22:01;;;;;;;;;;;;;;;19.45;55.31;100470.45;1541188;90;20455;-74
2022/04/30 13:24:29;;;;;;;;;;;;;;;19.31;56.29;100466.11;1598697;90;20175;-73
2022/04/30 13:26:57;;;;;;;;;;;;;;;19.30;57.25;100469.89;1598591;90;20118;-74
2022/04/30 13:29:25;;;;;;;;;;;;;;;19.11;56.21;100470.31;1598469;90;20434;-74
2022/04/30 13:31:52;;;;;;;;;;;;;;;18.83;59.13;100467.87;1636939;87;20130;-75
2022/04/30 13:36:48;;;;;;;;;;;;;;;18.07;61.18;100470.03;1674061;85;20153;-73
2022/04/30 13:39:16;;;;;;;;;;;;;;;17.89;62.88;100476.12;1698176;85;20099;-74
2022/04/30 13:41:43;;;;;;;;;;;;;;;17.95;65.94;100475.80;1698861;85;20137;-74
2022/04/30 13:44:09;;;;;;;;;;;;;;;18.24;66.74;100467.73;1699096;84;20463;-73
2022/04/30 13:46:38;;;;;;;;;;;;;;;18.54;66.53;100457.70;1698700;85;20112;-72